sensor_id;sensor_type;location;lat;lon;timestamp;P1;durP1;ratioP1;P2;durP2;ratioP2
15504;SDS011;7854;52.184;5.942;2022-12-07T00:03:01;9;;;8;;
15504;SDS011;7854;52.184;5.942;2022-12-07T00:04:26;8;;;7;;
15504;SDS011;7854;52.184;5.942;2022-12-07T00:06:43;8;;;7;;
15504;SDS011;7854;52.184;5.942;2022-12-07T00:08:55;8;;;7;;
15504;SDS011;7854;52.184;5.942;2022-12-07T00:11:10;8;;;8;;
15504;SDS011;7854;52.184;5.942;2022-12-07T00:13:23;6;;;6;;
15504;SDS011;7854;52.184;5.942;2022-12-07T00:15:38;5;;;5;;
15504;SDS011;7854;52.184;5.942;2022-12-07T00:17:52;8;;;7;;
15504;SDS011;7854;52.184;5.942;2022-12-07T00:20:07;6;;;6;;
15504;SDS011;7854;52.184;5.942;2022-12-07T00:22:21;7;;;7;;
15504;SDS011;7854;52.184;5.942;2022-12-07T00:24:36;6;;;5;;
15504;SDS011;7854;52.184;5.942;2022-12-07T00:26:50;8;;;7;;
15504;SDS011;7854;52.184;5.942;2022-12-07T00:29:06;6;;;6;;
15504;SDS011;7854;52.184;5.942;2022-12-07T00:31:20;9;;;7;;
15504;SDS011;7854;52.184;5.942;2022-12-07T00:33:34;6;;;5;;
15504;SDS011;7854;52.184;5.942;2022-12-07T00:35:54;5;;;5;;
15504;SDS011;7854;52.184;5.942;2022-12-07T00:38:03;6;;;5;;
15504;SDS011;7854;52.184;5.942;2022-12-07T00:40:17;6;;;6;;
15504;SDS011;7854;52.184;5.942;2022-12-07T00:42:31;6;;;5;;
15504;SDS011;7854;52.184;5.942;2022-12-07T00:44:46;7;;;5;;
15504;SDS011;7854;52.184;5.942;2022-12-07T00:47:00;6;;;6;;
15504;SDS011;7854;52.184;5.942;2022-12-07T00:49:14;7;;;4;;
15504;SDS011;7854;52.184;5.942;2022-12-07T00:51:29;5;;;5;;
15504;SDS011;7854;52.184;5.942;2022-12-07T00:53:43;10;;;6;;
15504;SDS011;7854;52.184;5.942;2022-12-07T00:55:58;5;;;5;;
15504;SDS011;7854;52.184;5.942;2022-12-07T00:58:12;5;;;5;;
15504;SDS011;7854;52.184;5.942;2022-12-07T01:00:27;8;;;7;;
15504;SDS011;7854;52.184;5.942;2022-12-07T01:02:41;7;;;7;;
15504;SDS011;7854;52.184;5.942;2022-12-07T01:04:56;10;;;5;;
15504;SDS011;7854;52.184;5.942;2022-12-07T01:07:10;5;;;4;;
15504;SDS011;7854;52.184;5.942;2022-12-07T01:09:25;6;;;6;;
15504;SDS011;7854;52.184;5.942;2022-12-07T01:11:38;6;;;5;;
15504;SDS011;7854;52.184;5.942;2022-12-07T01:13:54;5;;;5;;
15504;SDS011;7854;52.184;5.942;2022-12-07T01:16:07;4;;;4;;
15504;SDS011;7854;52.184;5.942;2022-12-07T01:18:21;6;;;5;;
15504;SDS011;7854;52.184;5.942;2022-12-07T01:20:36;7;;;6;;
15504;SDS011;7854;52.184;5.942;2022-12-07T01:22:50;15;;;5;;
15504;SDS011;7854;52.184;5.942;2022-12-07T01:25:06;7;;;7;;
15504;SDS011;7854;52.184;5.942;2022-12-07T01:27:19;15;;;7;;
15504;SDS011;7854;52.184;5.942;2022-12-07T01:29:33;5;;;4;;
15504;SDS011;7854;52.184;5.942;2022-12-07T01:31:48;5;;;5;;
15504;SDS011;7854;52.184;5.942;2022-12-07T01:34:03;6;;;5;;
15504;SDS011;7854;52.184;5.942;2022-12-07T01:36:18;5;;;5;;
15504;SDS011;7854;52.184;5.942;2022-12-07T01:38:32;5;;;5;;
15504;SDS011;7854;52.184;5.942;2022-12-07T01:40:52;6;;;5;;
15504;SDS011;7854;52.184;5.942;2022-12-07T01:43:00;6;;;5;;
15504;SDS011;7854;52.184;5.942;2022-12-07T01:45:31;9;;;6;;
15504;SDS011;7854;52.184;5.942;2022-12-07T01:47:29;5;;;5;;
15504;SDS011;7854;52.184;5.942;2022-12-07T01:49:45;5;;;5;;
15504;SDS011;7854;52.184;5.942;2022-12-07T01:52:02;7;;;5;;
15504;SDS011;7854;52.184;5.942;2022-12-07T01:54:13;12;;;6;;
15504;SDS011;7854;52.184;5.942;2022-12-07T01:56:27;5;;;5;;
15504;SDS011;7854;52.184;5.942;2022-12-07T01:58:42;6;;;6;;
15504;SDS011;7854;52.184;5.942;2022-12-07T02:00:56;7;;;7;;
15504;SDS011;7854;52.184;5.942;2022-12-07T02:03:11;7;;;6;;
15504;SDS011;7854;52.184;5.942;2022-12-07T02:05:25;6;;;6;;
15504;SDS011;7854;52.184;5.942;2022-12-07T02:07:39;7;;;7;;
15504;SDS011;7854;52.184;5.942;2022-12-07T02:09:54;6;;;6;;
15504;SDS011;7854;52.184;5.942;2022-12-07T02:12:08;7;;;7;;
15504;SDS011;7854;52.184;5.942;2022-12-07T02:14:23;6;;;6;;
15504;SDS011;7854;52.184;5.942;2022-12-07T02:16:40;6;;;5;;
15504;SDS011;7854;52.184;5.942;2022-12-07T02:18:55;7;;;6;;
15504;SDS011;7854;52.184;5.942;2022-12-07T02:21:07;6;;;6;;
15504;SDS011;7854;52.184;5.942;2022-12-07T02:23:32;6;;;6;;
15504;SDS011;7854;52.184;5.942;2022-12-07T02:25:41;7;;;6;;
15504;SDS011;7854;52.184;5.942;2022-12-07T02:27:50;10;;;6;;
15504;SDS011;7854;52.184;5.942;2022-12-07T02:30:06;7;;;5;;
15504;SDS011;7854;52.184;5.942;2022-12-07T02:32:19;8;;;5;;
15504;SDS011;7854;52.184;5.942;2022-12-07T02:34:35;6;;;6;;
15504;SDS011;7854;52.184;5.942;2022-12-07T02:36:50;8;;;6;;
15504;SDS011;7854;52.184;5.942;2022-12-07T02:39:02;6;;;6;;
15504;SDS011;7854;52.184;5.942;2022-12-07T02:41:17;6;;;5;;
15504;SDS011;7854;52.184;5.942;2022-12-07T02:43:30;7;;;6;;
15504;SDS011;7854;52.184;5.942;2022-12-07T02:45:45;21;;;6;;
15504;SDS011;7854;52.184;5.942;2022-12-07T02:47:59;8;;;5;;
15504;SDS011;7854;52.184;5.942;2022-12-07T02:50:14;5;;;4;;
15504;SDS011;7854;52.184;5.942;2022-12-07T02:52:28;11;;;6;;
15504;SDS011;7854;52.184;5.942;2022-12-07T02:54:42;7;;;5;;
15504;SDS011;7854;52.184;5.942;2022-12-07T02:56:59;7;;;6;;
15504;SDS011;7854;52.184;5.942;2022-12-07T03:01:28;10;;;5;;
15504;SDS011;7854;52.184;5.942;2022-12-07T03:03:41;7;;;4;;
15504;SDS011;7854;52.184;5.942;2022-12-07T03:05:59;9;;;6;;
15504;SDS011;7854;52.184;5.942;2022-12-07T03:08:12;5;;;4;;
15504;SDS011;7854;52.184;5.942;2022-12-07T03:10:24;14;;;5;;
15504;SDS011;7854;52.184;5.942;2022-12-07T03:12:41;5;;;4;;
15504;SDS011;7854;52.184;5.942;2022-12-07T03:14:55;7;;;5;;
15504;SDS011;7854;52.184;5.942;2022-12-07T03:17:08;6;;;4;;
15504;SDS011;7854;52.184;5.942;2022-12-07T03:19:22;12;;;4;;
15504;SDS011;7854;52.184;5.942;2022-12-07T03:21:37;4;;;4;;
15504;SDS011;7854;52.184;5.942;2022-12-07T03:23:51;10;;;6;;
15504;SDS011;7854;52.184;5.942;2022-12-07T03:26:05;6;;;5;;
15504;SDS011;7854;52.184;5.942;2022-12-07T03:28:20;17;;;5;;
15504;SDS011;7854;52.184;5.942;2022-12-07T03:30:35;5;;;5;;
15504;SDS011;7854;52.184;5.942;2022-12-07T03:32:49;6;;;5;;
15504;SDS011;7854;52.184;5.942;2022-12-07T03:35:03;7;;;5;;
15504;SDS011;7854;52.184;5.942;2022-12-07T03:37:17;6;;;5;;
15504;SDS011;7854;52.184;5.942;2022-12-07T03:39:32;15;;;5;;
15504;SDS011;7854;52.184;5.942;2022-12-07T03:41:45;6;;;6;;
15504;SDS011;7854;52.184;5.942;2022-12-07T03:44:00;24;;;4;;
15504;SDS011;7854;52.184;5.942;2022-12-07T03:46:17;4;;;4;;
15504;SDS011;7854;52.184;5.942;2022-12-07T03:48:31;4;;;4;;
15504;SDS011;7854;52.184;5.942;2022-12-07T03:50:44;8;;;5;;
15504;SDS011;7854;52.184;5.942;2022-12-07T03:52:58;4;;;3;;
15504;SDS011;7854;52.184;5.942;2022-12-07T03:55:11;5;;;4;;
15504;SDS011;7854;52.184;5.942;2022-12-07T03:57:25;8;;;4;;
15504;SDS011;7854;52.184;5.942;2022-12-07T03:59:39;4;;;3;;
15504;SDS011;7854;52.184;5.942;2022-12-07T04:01:54;5;;;4;;
15504;SDS011;7854;52.184;5.942;2022-12-07T04:04:09;4;;;3;;
15504;SDS011;7854;52.184;5.942;2022-12-07T04:06:23;4;;;3;;
15504;SDS011;7854;52.184;5.942;2022-12-07T04:08:37;5;;;4;;
15504;SDS011;7854;52.184;5.942;2022-12-07T04:10:51;2;;;2;;
15504;SDS011;7854;52.184;5.942;2022-12-07T04:13:06;13;;;3;;
15504;SDS011;7854;52.184;5.942;2022-12-07T04:15:21;4;;;3;;
15504;SDS011;7854;52.184;5.942;2022-12-07T04:17:35;5;;;3;;
15504;SDS011;7854;52.184;5.942;2022-12-07T04:19:50;5;;;4;;
15504;SDS011;7854;52.184;5.942;2022-12-07T04:22:04;6;;;3;;
15504;SDS011;7854;52.184;5.942;2022-12-07T04:24:18;4;;;4;;
15504;SDS011;7854;52.184;5.942;2022-12-07T04:26:33;13;;;4;;
15504;SDS011;7854;52.184;5.942;2022-12-07T04:28:47;6;;;5;;
15504;SDS011;7854;52.184;5.942;2022-12-07T04:31:02;5;;;5;;
15504;SDS011;7854;52.184;5.942;2022-12-07T04:33:16;8;;;5;;
15504;SDS011;7854;52.184;5.942;2022-12-07T04:35:31;5;;;4;;
15504;SDS011;7854;52.184;5.942;2022-12-07T04:37:45;7;;;4;;
15504;SDS011;7854;52.184;5.942;2022-12-07T04:40:00;6;;;5;;
15504;SDS011;7854;52.184;5.942;2022-12-07T04:42:14;8;;;3;;
15504;SDS011;7854;52.184;5.942;2022-12-07T04:44:29;9;;;4;;
15504;SDS011;7854;52.184;5.942;2022-12-07T04:46:43;3;;;3;;
15504;SDS011;7854;52.184;5.942;2022-12-07T04:51:12;4;;;4;;
15504;SDS011;7854;52.184;5.942;2022-12-07T04:53:26;5;;;3;;
15504;SDS011;7854;52.184;5.942;2022-12-07T04:55:41;6;;;4;;
15504;SDS011;7854;52.184;5.942;2022-12-07T04:57:55;5;;;3;;
15504;SDS011;7854;52.184;5.942;2022-12-07T05:00:10;4;;;3;;
15504;SDS011;7854;52.184;5.942;2022-12-07T05:02:24;5;;;4;;
15504;SDS011;7854;52.184;5.942;2022-12-07T05:04:39;4;;;4;;
15504;SDS011;7854;52.184;5.942;2022-12-07T05:06:53;5;;;3;;
15504;SDS011;7854;52.184;5.942;2022-12-07T05:09:07;5;;;3;;
15504;SDS011;7854;52.184;5.942;2022-12-07T05:11:22;16;;;3;;
15504;SDS011;7854;52.184;5.942;2022-12-07T05:13:36;4;;;3;;
15504;SDS011;7854;52.184;5.942;2022-12-07T05:15:50;10;;;3;;
15504;SDS011;7854;52.184;5.942;2022-12-07T05:18:05;5;;;4;;
15504;SDS011;7854;52.184;5.942;2022-12-07T05:20:20;4;;;4;;
15504;SDS011;7854;52.184;5.942;2022-12-07T05:22:34;4;;;4;;
15504;SDS011;7854;52.184;5.942;2022-12-07T05:27:03;3;;;3;;
15504;SDS011;7854;52.184;5.942;2022-12-07T05:31:32;4;;;4;;
15504;SDS011;7854;52.184;5.942;2022-12-07T05:33:45;4;;;3;;
15504;SDS011;7854;52.184;5.942;2022-12-07T05:36:06;3;;;3;;
15504;SDS011;7854;52.184;5.942;2022-12-07T05:38:26;4;;;3;;
15504;SDS011;7854;52.184;5.942;2022-12-07T05:40:47;3;;;3;;
15504;SDS011;7854;52.184;5.942;2022-12-07T05:43:08;3;;;3;;
15504;SDS011;7854;52.184;5.942;2022-12-07T05:45:28;4;;;3;;
15504;SDS011;7854;52.184;5.942;2022-12-07T05:47:48;7;;;4;;
15504;SDS011;7854;52.184;5.942;2022-12-07T05:50:03;3;;;3;;
15504;SDS011;7854;52.184;5.942;2022-12-07T05:52:17;5;;;3;;
15504;SDS011;7854;52.184;5.942;2022-12-07T05:54:31;7;;;3;;
15504;SDS011;7854;52.184;5.942;2022-12-07T05:56:46;3;;;2;;
15504;SDS011;7854;52.184;5.942;2022-12-07T05:59:00;5;;;2;;
15504;SDS011;7854;52.184;5.942;2022-12-07T06:01:14;2;;;2;;
15504;SDS011;7854;52.184;5.942;2022-12-07T06:03:29;4;;;2;;
15504;SDS011;7854;52.184;5.942;2022-12-07T06:05:43;3;;;2;;
15504;SDS011;7854;52.184;5.942;2022-12-07T06:07:58;7;;;3;;
15504;SDS011;7854;52.184;5.942;2022-12-07T06:10:12;4;;;3;;
15504;SDS011;7854;52.184;5.942;2022-12-07T06:12:27;9;;;3;;
15504;SDS011;7854;52.184;5.942;2022-12-07T06:14:41;3;;;3;;
15504;SDS011;7854;52.184;5.942;2022-12-07T06:16:56;4;;;3;;
15504;SDS011;7854;52.184;5.942;2022-12-07T06:19:10;6;;;3;;
15504;SDS011;7854;52.184;5.942;2022-12-07T06:21:24;7;;;3;;
15504;SDS011;7854;52.184;5.942;2022-12-07T06:23:39;3;;;3;;
15504;SDS011;7854;52.184;5.942;2022-12-07T06:25:53;6;;;2;;
15504;SDS011;7854;52.184;5.942;2022-12-07T06:28:08;4;;;2;;
15504;SDS011;7854;52.184;5.942;2022-12-07T06:30:22;3;;;3;;
15504;SDS011;7854;52.184;5.942;2022-12-07T06:32:37;15;;;2;;
15504;SDS011;7854;52.184;5.942;2022-12-07T06:34:51;8;;;2;;
15504;SDS011;7854;52.184;5.942;2022-12-07T06:37:05;3;;;2;;
15504;SDS011;7854;52.184;5.942;2022-12-07T06:39:20;7;;;3;;
15504;SDS011;7854;52.184;5.942;2022-12-07T06:41:34;4;;;2;;
15504;SDS011;7854;52.184;5.942;2022-12-07T06:43:49;3;;;2;;
15504;SDS011;7854;52.184;5.942;2022-12-07T06:46:03;3;;;2;;
15504;SDS011;7854;52.184;5.942;2022-12-07T06:48:17;3;;;2;;
15504;SDS011;7854;52.184;5.942;2022-12-07T06:50:32;2;;;1;;
15504;SDS011;7854;52.184;5.942;2022-12-07T06:52:47;2;;;2;;
15504;SDS011;7854;52.184;5.942;2022-12-07T06:55:01;5;;;3;;
15504;SDS011;7854;52.184;5.942;2022-12-07T06:57:16;5;;;4;;
15504;SDS011;7854;52.184;5.942;2022-12-07T06:59:30;3;;;3;;
15504;SDS011;7854;52.184;5.942;2022-12-07T07:01:44;5;;;4;;
15504;SDS011;7854;52.184;5.942;2022-12-07T07:03:59;5;;;3;;
15504;SDS011;7854;52.184;5.942;2022-12-07T07:06:14;3;;;3;;
15504;SDS011;7854;52.184;5.942;2022-12-07T07:08:27;5;;;5;;
15504;SDS011;7854;52.184;5.942;2022-12-07T07:10:42;5;;;4;;
15504;SDS011;7854;52.184;5.942;2022-12-07T07:12:57;6;;;4;;
15504;SDS011;7854;52.184;5.942;2022-12-07T07:15:11;6;;;4;;
15504;SDS011;7854;52.184;5.942;2022-12-07T07:17:25;8;;;4;;
15504;SDS011;7854;52.184;5.942;2022-12-07T07:19:40;9;;;4;;
15504;SDS011;7854;52.184;5.942;2022-12-07T07:24:09;4;;;4;;
15504;SDS011;7854;52.184;5.942;2022-12-07T07:26:23;7;;;3;;
15504;SDS011;7854;52.184;5.942;2022-12-07T07:28:38;7;;;5;;
15504;SDS011;7854;52.184;5.942;2022-12-07T07:30:52;7;;;4;;
15504;SDS011;7854;52.184;5.942;2022-12-07T07:33:06;4;;;3;;
15504;SDS011;7854;52.184;5.942;2022-12-07T07:35:21;16;;;4;;
15504;SDS011;7854;52.184;5.942;2022-12-07T07:37:36;11;;;3;;
15504;SDS011;7854;52.184;5.942;2022-12-07T07:39:50;6;;;4;;
15504;SDS011;7854;52.184;5.942;2022-12-07T07:42:05;5;;;3;;
15504;SDS011;7854;52.184;5.942;2022-12-07T07:44:18;5;;;3;;
15504;SDS011;7854;52.184;5.942;2022-12-07T07:46:33;6;;;3;;
15504;SDS011;7854;52.184;5.942;2022-12-07T07:48:47;8;;;4;;
15504;SDS011;7854;52.184;5.942;2022-12-07T07:51:04;5;;;5;;
15504;SDS011;7854;52.184;5.942;2022-12-07T07:53:16;5;;;5;;
15504;SDS011;7854;52.184;5.942;2022-12-07T07:55:31;6;;;4;;
15504;SDS011;7854;52.184;5.942;2022-12-07T07:57:46;6;;;4;;
15504;SDS011;7854;52.184;5.942;2022-12-07T08:00:00;13;;;5;;
15504;SDS011;7854;52.184;5.942;2022-12-07T08:02:16;4;;;3;;
15504;SDS011;7854;52.184;5.942;2022-12-07T08:04:28;13;;;4;;
15504;SDS011;7854;52.184;5.942;2022-12-07T08:06:43;7;;;4;;
15504;SDS011;7854;52.184;5.942;2022-12-07T08:08:58;3;;;2;;
15504;SDS011;7854;52.184;5.942;2022-12-07T08:11:11;5;;;3;;
15504;SDS011;7854;52.184;5.942;2022-12-07T08:15:40;7;;;4;;
15504;SDS011;7854;52.184;5.942;2022-12-07T08:20:09;56;;;5;;
15504;SDS011;7854;52.184;5.942;2022-12-07T08:22:23;6;;;4;;
15504;SDS011;7854;52.184;5.942;2022-12-07T08:24:38;7;;;4;;
15504;SDS011;7854;52.184;5.942;2022-12-07T08:26:52;22;;;4;;
15504;SDS011;7854;52.184;5.942;2022-12-07T08:29:07;4;;;3;;
15504;SDS011;7854;52.184;5.942;2022-12-07T08:31:21;4;;;3;;
15504;SDS011;7854;52.184;5.942;2022-12-07T08:33:35;4;;;3;;
15504;SDS011;7854;52.184;5.942;2022-12-07T08:35:50;14;;;5;;
15504;SDS011;7854;52.184;5.942;2022-12-07T08:40:19;8;;;6;;
15504;SDS011;7854;52.184;5.942;2022-12-07T08:42:33;11;;;7;;
15504;SDS011;7854;52.184;5.942;2022-12-07T08:44:53;20;;;6;;
15504;SDS011;7854;52.184;5.942;2022-12-07T08:47:13;5;;;5;;
15504;SDS011;7854;52.184;5.942;2022-12-07T08:49:35;9;;;5;;
15504;SDS011;7854;52.184;5.942;2022-12-07T08:51:55;12;;;5;;
15504;SDS011;7854;52.184;5.942;2022-12-07T08:54:16;17;;;5;;
15504;SDS011;7854;52.184;5.942;2022-12-07T08:56:42;10;;;7;;
15504;SDS011;7854;52.184;5.942;2022-12-07T08:58:56;6;;;6;;
15504;SDS011;7854;52.184;5.942;2022-12-07T09:01:10;15;;;9;;
15504;SDS011;7854;52.184;5.942;2022-12-07T09:03:24;6;;;5;;
15504;SDS011;7854;52.184;5.942;2022-12-07T09:05:38;5;;;4;;
15504;SDS011;7854;52.184;5.942;2022-12-07T09:07:54;4;;;4;;
15504;SDS011;7854;52.184;5.942;2022-12-07T09:10:08;6;;;3;;
15504;SDS011;7854;52.184;5.942;2022-12-07T09:12:22;6;;;4;;
15504;SDS011;7854;52.184;5.942;2022-12-07T09:14:36;3;;;3;;
15504;SDS011;7854;52.184;5.942;2022-12-07T09:16:51;10;;;3;;
15504;SDS011;7854;52.184;5.942;2022-12-07T09:19:05;6;;;4;;
15504;SDS011;7854;52.184;5.942;2022-12-07T09:21:20;6;;;5;;
15504;SDS011;7854;52.184;5.942;2022-12-07T09:23:34;4;;;4;;
15504;SDS011;7854;52.184;5.942;2022-12-07T09:25:49;7;;;4;;
15504;SDS011;7854;52.184;5.942;2022-12-07T09:30:17;3;;;2;;
15504;SDS011;7854;52.184;5.942;2022-12-07T09:32:32;5;;;3;;
15504;SDS011;7854;52.184;5.942;2022-12-07T09:34:46;5;;;4;;
15504;SDS011;7854;52.184;5.942;2022-12-07T09:37:01;5;;;4;;
15504;SDS011;7854;52.184;5.942;2022-12-07T09:39:15;14;;;5;;
15504;SDS011;7854;52.184;5.942;2022-12-07T09:41:30;6;;;3;;
15504;SDS011;7854;52.184;5.942;2022-12-07T09:43:44;5;;;3;;
15504;SDS011;7854;52.184;5.942;2022-12-07T09:45:58;8;;;2;;
15504;SDS011;7854;52.184;5.942;2022-12-07T09:48:15;4;;;3;;
15504;SDS011;7854;52.184;5.942;2022-12-07T09:50:28;11;;;3;;
15504;SDS011;7854;52.184;5.942;2022-12-07T09:52:42;5;;;3;;
15504;SDS011;7854;52.184;5.942;2022-12-07T09:54:57;4;;;2;;
15504;SDS011;7854;52.184;5.942;2022-12-07T09:57:11;11;;;3;;
15504;SDS011;7854;52.184;5.942;2022-12-07T09:59:25;7;;;2;;
15504;SDS011;7854;52.184;5.942;2022-12-07T10:01:40;2;;;2;;
15504;SDS011;7854;52.184;5.942;2022-12-07T10:03:55;9;;;2;;
15504;SDS011;7854;52.184;5.942;2022-12-07T10:06:09;4;;;2;;
15504;SDS011;7854;52.184;5.942;2022-12-07T10:08:24;5;;;3;;
15504;SDS011;7854;52.184;5.942;2022-12-07T10:10:38;5;;;2;;
15504;SDS011;7854;52.184;5.942;2022-12-07T10:16:46;3;;;3;;
15504;SDS011;7854;52.184;5.942;2022-12-07T10:17:29;17;;;5;;
15504;SDS011;7854;52.184;5.942;2022-12-07T10:19:35;13;;;2;;
15504;SDS011;7854;52.184;5.942;2022-12-07T10:22:09;3;;;2;;
15504;SDS011;7854;52.184;5.942;2022-12-07T10:24:05;4;;;3;;
15504;SDS011;7854;52.184;5.942;2022-12-07T10:26:19;1;;;1;;
15504;SDS011;7854;52.184;5.942;2022-12-07T10:28:34;5;;;2;;
15504;SDS011;7854;52.184;5.942;2022-12-07T10:30:49;3;;;2;;
15504;SDS011;7854;52.184;5.942;2022-12-07T10:33:02;5;;;2;;
15504;SDS011;7854;52.184;5.942;2022-12-07T10:35:19;2;;;2;;
15504;SDS011;7854;52.184;5.942;2022-12-07T10:37:31;2;;;2;;
15504;SDS011;7854;52.184;5.942;2022-12-07T10:39:46;2;;;2;;
15504;SDS011;7854;52.184;5.942;2022-12-07T10:42:00;3;;;2;;
15504;SDS011;7854;52.184;5.942;2022-12-07T10:44:19;8;;;2;;
15504;SDS011;7854;52.184;5.942;2022-12-07T10:48:45;7;;;4;;
15504;SDS011;7854;52.184;5.942;2022-12-07T10:51:00;10;;;4;;
15504;SDS011;7854;52.184;5.942;2022-12-07T10:53:16;5;;;4;;
15504;SDS011;7854;52.184;5.942;2022-12-07T10:55:28;4;;;4;;
15504;SDS011;7854;52.184;5.942;2022-12-07T10:57:44;6;;;3;;
15504;SDS011;7854;52.184;5.942;2022-12-07T11:00:00;5;;;3;;
15504;SDS011;7854;52.184;5.942;2022-12-07T11:02:16;2;;;1;;
15504;SDS011;7854;52.184;5.942;2022-12-07T11:04:27;2;;;2;;
15504;SDS011;7854;52.184;5.942;2022-12-07T11:06:39;15;;;2;;
15504;SDS011;7854;52.184;5.942;2022-12-07T11:08:57;4;;;2;;
15504;SDS011;7854;52.184;5.942;2022-12-07T11:11:09;3;;;1;;
15504;SDS011;7854;52.184;5.942;2022-12-07T11:13:23;8;;;2;;
15504;SDS011;7854;52.184;5.942;2022-12-07T11:15:40;8;;;2;;
15504;SDS011;7854;52.184;5.942;2022-12-07T11:17:53;5;;;2;;
15504;SDS011;7854;52.184;5.942;2022-12-07T11:20:11;2;;;2;;
15504;SDS011;7854;52.184;5.942;2022-12-07T11:22:20;12;;;1;;
15504;SDS011;7854;52.184;5.942;2022-12-07T11:24:35;4;;;1;;
15504;SDS011;7854;52.184;5.942;2022-12-07T11:26:50;4;;;2;;
15504;SDS011;7854;52.184;5.942;2022-12-07T11:29:06;6;;;2;;
15504;SDS011;7854;52.184;5.942;2022-12-07T11:31:17;1;;;1;;
15504;SDS011;7854;52.184;5.942;2022-12-07T11:33:32;1;;;1;;
15504;SDS011;7854;52.184;5.942;2022-12-07T11:35:46;2;;;1;;
15504;SDS011;7854;52.184;5.942;2022-12-07T11:38:00;2;;;1;;
15504;SDS011;7854;52.184;5.942;2022-12-07T11:40:15;1;;;1;;
15504;SDS011;7854;52.184;5.942;2022-12-07T11:42:29;1;;;1;;
15504;SDS011;7854;52.184;5.942;2022-12-07T11:44:46;2;;;1;;
15504;SDS011;7854;52.184;5.942;2022-12-07T11:46:58;2;;;2;;
15504;SDS011;7854;52.184;5.942;2022-12-07T11:49:13;4;;;3;;
15504;SDS011;7854;52.184;5.942;2022-12-07T11:51:26;8;;;2;;
15504;SDS011;7854;52.184;5.942;2022-12-07T11:53:41;1;;;1;;
15504;SDS011;7854;52.184;5.942;2022-12-07T11:55:56;2;;;1;;
15504;SDS011;7854;52.184;5.942;2022-12-07T11:58:13;8;;;2;;
15504;SDS011;7854;52.184;5.942;2022-12-07T12:00:23;6;;;1;;
15504;SDS011;7854;52.184;5.942;2022-12-07T12:02:39;1;;;1;;
15504;SDS011;7854;52.184;5.942;2022-12-07T12:04:54;7;;;2;;
15504;SDS011;7854;52.184;5.942;2022-12-07T12:07:07;2;;;1;;
15504;SDS011;7854;52.184;5.942;2022-12-07T12:09:22;1;;;1;;
15504;SDS011;7854;52.184;5.942;2022-12-07T12:11:39;1;;;1;;
15504;SDS011;7854;52.184;5.942;2022-12-07T12:13:55;8;;;1;;
15504;SDS011;7854;52.184;5.942;2022-12-07T12:16:10;2;;;1;;
15504;SDS011;7854;52.184;5.942;2022-12-07T12:18:25;2;;;1;;
15504;SDS011;7854;52.184;5.942;2022-12-07T12:20:35;3;;;1;;
15504;SDS011;7854;52.184;5.942;2022-12-07T12:22:49;2;;;0;;
15504;SDS011;7854;52.184;5.942;2022-12-07T12:25:03;1;;;0;;
15504;SDS011;7854;52.184;5.942;2022-12-07T12:27:18;0;;;0;;
15504;SDS011;7854;52.184;5.942;2022-12-07T12:29:32;7;;;1;;
15504;SDS011;7854;52.184;5.942;2022-12-07T12:31:47;4;;;0;;
15504;SDS011;7854;52.184;5.942;2022-12-07T12:34:01;7;;;0;;
15504;SDS011;7854;52.184;5.942;2022-12-07T12:36:43;0;;;0;;
15504;SDS011;7854;52.184;5.942;2022-12-07T12:38:30;2;;;1;;
15504;SDS011;7854;52.184;5.942;2022-12-07T12:40:44;1;;;0;;
15504;SDS011;7854;52.184;5.942;2022-12-07T12:42:58;1;;;0;;
15504;SDS011;7854;52.184;5.942;2022-12-07T12:45:20;2;;;1;;
15504;SDS011;7854;52.184;5.942;2022-12-07T12:47:42;3;;;1;;
15504;SDS011;7854;52.184;5.942;2022-12-07T12:49:41;1;;;1;;
15504;SDS011;7854;52.184;5.942;2022-12-07T12:51:56;3;;;1;;
15504;SDS011;7854;52.184;5.942;2022-12-07T12:54:10;8;;;1;;
15504;SDS011;7854;52.184;5.942;2022-12-07T12:56:28;1;;;0;;
15504;SDS011;7854;52.184;5.942;2022-12-07T12:58:41;6;;;1;;
15504;SDS011;7854;52.184;5.942;2022-12-07T13:01:32;3;;;1;;
15504;SDS011;7854;52.184;5.942;2022-12-07T13:03:25;1;;;0;;
15504;SDS011;7854;52.184;5.942;2022-12-07T13:05:23;3;;;1;;
15504;SDS011;7854;52.184;5.942;2022-12-07T13:07:53;2;;;1;;
15504;SDS011;7854;52.184;5.942;2022-12-07T13:09:51;2;;;1;;
15504;SDS011;7854;52.184;5.942;2022-12-07T13:12:11;1;;;0;;
15504;SDS011;7854;52.184;5.942;2022-12-07T13:14:35;14;;;1;;
15504;SDS011;7854;52.184;5.942;2022-12-07T13:16:36;1;;;0;;
15504;SDS011;7854;52.184;5.942;2022-12-07T13:18:49;1;;;0;;
15504;SDS011;7854;52.184;5.942;2022-12-07T13:21:39;1;;;1;;
15504;SDS011;7854;52.184;5.942;2022-12-07T13:23:18;1;;;0;;
15504;SDS011;7854;52.184;5.942;2022-12-07T13:25:36;3;;;1;;
15504;SDS011;7854;52.184;5.942;2022-12-07T13:27:48;2;;;1;;
15504;SDS011;7854;52.184;5.942;2022-12-07T13:30:07;2;;;1;;
15504;SDS011;7854;52.184;5.942;2022-12-07T13:32:20;3;;;2;;
15504;SDS011;7854;52.184;5.942;2022-12-07T13:34:31;2;;;1;;
15504;SDS011;7854;52.184;5.942;2022-12-07T13:36:44;3;;;1;;
15504;SDS011;7854;52.184;5.942;2022-12-07T13:39:00;1;;;1;;
15504;SDS011;7854;52.184;5.942;2022-12-07T13:41:14;7;;;1;;
15504;SDS011;7854;52.184;5.942;2022-12-07T13:43:27;1;;;0;;
15504;SDS011;7854;52.184;5.942;2022-12-07T13:45:42;2;;;1;;
15504;SDS011;7854;52.184;5.942;2022-12-07T13:47:57;4;;;0;;
15504;SDS011;7854;52.184;5.942;2022-12-07T13:50:21;1;;;0;;
15504;SDS011;7854;52.184;5.942;2022-12-07T13:52:26;1;;;0;;
15504;SDS011;7854;52.184;5.942;2022-12-07T13:54:43;6;;;1;;
15504;SDS011;7854;52.184;5.942;2022-12-07T13:56:54;3;;;1;;
15504;SDS011;7854;52.184;5.942;2022-12-07T13:59:10;2;;;0;;
15504;SDS011;7854;52.184;5.942;2022-12-07T14:01:22;2;;;1;;
15504;SDS011;7854;52.184;5.942;2022-12-07T14:03:37;3;;;1;;
15504;SDS011;7854;52.184;5.942;2022-12-07T14:06:02;3;;;1;;
15504;SDS011;7854;52.184;5.942;2022-12-07T14:08:21;1;;;1;;
15504;SDS011;7854;52.184;5.942;2022-12-07T14:10:23;2;;;1;;
15504;SDS011;7854;52.184;5.942;2022-12-07T14:12:35;5;;;0;;
15504;SDS011;7854;52.184;5.942;2022-12-07T14:14:49;1;;;1;;
15504;SDS011;7854;52.184;5.942;2022-12-07T14:17:11;3;;;1;;
15504;SDS011;7854;52.184;5.942;2022-12-07T14:19:39;1;;;1;;
15504;SDS011;7854;52.184;5.942;2022-12-07T14:21:33;13;;;1;;
15504;SDS011;7854;52.184;5.942;2022-12-07T14:23:54;4;;;1;;
15504;SDS011;7854;52.184;5.942;2022-12-07T14:26:06;2;;;1;;
15504;SDS011;7854;52.184;5.942;2022-12-07T14:28:25;2;;;1;;
15504;SDS011;7854;52.184;5.942;2022-12-07T14:30:31;1;;;0;;
15504;SDS011;7854;52.184;5.942;2022-12-07T14:32:45;1;;;1;;
15504;SDS011;7854;52.184;5.942;2022-12-07T14:35:00;9;;;1;;
15504;SDS011;7854;52.184;5.942;2022-12-07T14:37:14;3;;;0;;
15504;SDS011;7854;52.184;5.942;2022-12-07T14:39:28;0;;;0;;
15504;SDS011;7854;52.184;5.942;2022-12-07T14:41:42;1;;;0;;
15504;SDS011;7854;52.184;5.942;2022-12-07T14:43:56;0;;;0;;
15504;SDS011;7854;52.184;5.942;2022-12-07T14:46:11;1;;;0;;
15504;SDS011;7854;52.184;5.942;2022-12-07T14:48:26;1;;;0;;
15504;SDS011;7854;52.184;5.942;2022-12-07T14:50:41;0;;;0;;
15504;SDS011;7854;52.184;5.942;2022-12-07T14:52:55;5;;;0;;
15504;SDS011;7854;52.184;5.942;2022-12-07T14:55:12;1;;;1;;
15504;SDS011;7854;52.184;5.942;2022-12-07T14:57:24;0;;;0;;
15504;SDS011;7854;52.184;5.942;2022-12-07T14:59:38;4;;;0;;
15504;SDS011;7854;52.184;5.942;2022-12-07T15:01:52;1;;;1;;
15504;SDS011;7854;52.184;5.942;2022-12-07T15:04:07;2;;;1;;
15504;SDS011;7854;52.184;5.942;2022-12-07T15:06:22;2;;;2;;
15504;SDS011;7854;52.184;5.942;2022-12-07T15:08:36;2;;;1;;
15504;SDS011;7854;52.184;5.942;2022-12-07T15:10:50;1;;;1;;
15504;SDS011;7854;52.184;5.942;2022-12-07T15:13:04;2;;;1;;
15504;SDS011;7854;52.184;5.942;2022-12-07T15:15:19;1;;;1;;
15504;SDS011;7854;52.184;5.942;2022-12-07T15:19:48;10;;;1;;
15504;SDS011;7854;52.184;5.942;2022-12-07T15:22:02;6;;;1;;
15504;SDS011;7854;52.184;5.942;2022-12-07T15:24:17;3;;;2;;
15504;SDS011;7854;52.184;5.942;2022-12-07T15:26:31;4;;;2;;
15504;SDS011;7854;52.184;5.942;2022-12-07T15:28:45;4;;;2;;
15504;SDS011;7854;52.184;5.942;2022-12-07T15:31:00;6;;;2;;
15504;SDS011;7854;52.184;5.942;2022-12-07T15:33:15;8;;;6;;